Time;durP1;ratioP1;P1;durP2;ratioP2;P2;SDS_P1;SDS_P2;PMS_P1;PMS_P2;Temp;Humidity;BMP_temperature;BMP_pressure;BME280_temperature;BME280_humidity;BME280_pressure;Samples;Min_cycle;Max_cycle;Signal;HPM_P1;HPM_P2
2021/01/23 00:00:10;;;;;;;;;;;;;;;1.34;74.71;95619.55;1744311;80;26077;-85
2021/01/23 00:02:39;;;;;;;;;;;;;;;1.36;74.67;95613.02;1744217;81;25832;-81
2021/01/23 00:05:07;;;;;;;;;;;;;;;1.40;74.65;95620.10;1741361;80;25745;-81
2021/01/23 00:07:34;;;;;;;;;;;;;;;1.40;74.55;95614.78;1765294;81;25754;-81
2021/01/23 00:10:03;;;;;;;;;;;;;;;1.42;74.55;95598.95;1766830;80;27323;-81
2021/01/23 00:12:30;;;;;;;;;;;;;;;1.37;74.43;95596.05;1744752;80;25902;-81
2021/01/23 00:14:57;;;;;;;;;;;;;;;1.31;74.46;95601.36;1744238;81;25694;-81
2021/01/23 00:17:24;;;;;;;;;;;;;;;1.25;74.57;95594.16;1751203;80;26000;-81
2021/01/23 00:19:51;;;;;;;;;;;;;;;1.19;74.67;95604.27;1757860;81;25851;-81
2021/01/23 00:22:17;;;;;;;;;;;;;;;1.13;74.94;95594.41;1745040;80;27490;-81
2021/01/23 00:24:45;;;;;;;;;;;;;;;1.14;75.07;95592.06;1744260;81;25765;-83
2021/01/23 00:27:12;;;;;;;;;;;;;;;1.16;75.21;95590.03;1744302;81;25658;-83
2021/01/23 00:29:39;;;;;;;;;;;;;;;1.21;75.27;95586.28;1744222;80;25756;-81
2021/01/23 00:32:06;;;;;;;;;;;;;;;1.24;75.24;95583.21;1744276;80;25776;-81
2021/01/23 00:34:33;;;;;;;;;;;;;;;1.30;75.19;95586.42;1744145;81;27514;-83
2021/01/23 00:36:59;;;;;;;;;;;;;;;1.32;74.96;95587.87;1744218;80;25762;-81
2021/01/23 00:39:26;;;;;;;;;;;;;;;1.29;74.67;95598.07;1744217;81;25728;-81
2021/01/23 00:41:53;;;;;;;;;;;;;;;1.22;74.54;95598.53;1751612;80;25727;-81
2021/01/23 00:44:20;;;;;;;;;;;;;;;1.18;74.44;95598.13;1759874;80;25790;-81
2021/01/23 00:46:47;;;;;;;;;;;;;;;1.07;74.58;95595.52;1744288;80;27709;-82
2021/01/23 00:49:14;;;;;;;;;;;;;;;1.07;74.67;95587.55;1744217;81;26159;-82
2021/01/23 00:51:41;;;;;;;;;;;;;;;1.08;74.75;95597.16;1744205;80;25758;-81
2021/01/23 00:54:08;;;;;;;;;;;;;;;1.11;74.76;95600.42;1744355;80;25763;-81
2021/01/23 00:56:35;;;;;;;;;;;;;;;1.08;74.81;95590.52;1744363;80;26351;-82
2021/01/23 00:59:02;;;;;;;;;;;;;;;0.95;74.74;95590.95;1744246;81;27505;-82
2021/01/23 01:01:29;;;;;;;;;;;;;;;0.93;74.91;95596.45;1755052;80;25740;-82
2021/01/23 01:03:56;;;;;;;;;;;;;;;0.99;74.99;95589.52;1740806;81;25740;-86
2021/01/23 01:06:22;;;;;;;;;;;;;;;0.93;74.89;95592.47;1762055;81;25777;-80
2021/01/23 01:08:49;;;;;;;;;;;;;;;0.88;74.88;95584.25;1740502;81;25771;-82
2021/01/23 01:11:16;;;;;;;;;;;;;;;0.79;74.87;95600.05;1740756;81;28472;-85
2021/01/23 01:13:43;;;;;;;;;;;;;;;0.75;74.96;95601.44;1761959;81;25751;-82
2021/01/23 01:16:10;;;;;;;;;;;;;;;0.70;75.00;95601.22;1740604;81;25776;-82
2021/01/23 01:18:37;;;;;;;;;;;;;;;0.74;75.07;95606.43;1759284;81;26387;-83
2021/01/23 01:21:04;;;;;;;;;;;;;;;0.73;75.04;95604.28;1744258;81;25742;-81
2021/01/23 01:23:31;;;;;;;;;;;;;;;0.70;75.06;95599.89;1740697;81;28518;-81
2021/01/23 01:25:58;;;;;;;;;;;;;;;0.68;75.11;95592.11;1740563;81;25819;-81
2021/01/23 01:28:25;;;;;;;;;;;;;;;0.67;75.00;95597.11;1740746;81;26389;-83
2021/01/23 01:30:52;;;;;;;;;;;;;;;0.66;75.14;95584.02;1740819;81;25692;-82
2021/01/23 01:33:19;;;;;;;;;;;;;;;0.64;75.15;95583.39;1740753;81;25872;-81
2021/01/23 01:35:46;;;;;;;;;;;;;;;0.55;75.23;95575.27;1752150;81;27694;-82
2021/01/23 01:38:13;;;;;;;;;;;;;;;0.60;75.29;95580.83;1751605;80;25835;-81
2021/01/23 01:40:40;;;;;;;;;;;;;;;0.57;75.25;95574.56;1740680;81;25721;-82
2021/01/23 01:43:07;;;;;;;;;;;;;;;0.55;75.21;95583.23;1752101;81;25745;-81
2021/01/23 01:45:34;;;;;;;;;;;;;;;0.58;75.23;95582.84;1750464;81;25672;-83
2021/01/23 01:48:01;;;;;;;;;;;;;;;0.60;75.22;95579.50;1740698;81;27526;-80
2021/01/23 01:50:28;;;;;;;;;;;;;;;0.61;75.25;95578.45;1740728;81;26314;-81
2021/01/23 01:52:55;;;;;;;;;;;;;;;0.61;75.21;95575.80;1761097;81;25756;-82
2021/01/23 01:55:25;;;;;;;;;;;;;;;0.60;75.28;95575.52;1741558;81;26978;-82
2021/01/23 01:57:52;;;;;;;;;;;;;;;0.52;75.37;95573.81;1739831;81;25823;-81
2021/01/23 02:00:19;;;;;;;;;;;;;;;0.46;75.41;95577.76;1740817;81;28925;-84
2021/01/23 02:03:15;;;;;;;;;;;;;;;0.43;75.62;95580.80;1753562;81;25700;-84
2021/01/23 02:06:02;;;;;;;;;;;;;;;0.40;75.82;95589.13;1736410;81;25341;-84
2021/01/23 02:08:54;;;;;;;;;;;;;;;0.46;76.04;95573.78;1737107;81;26197;-82
2021/01/23 02:11:49;;;;;;;;;;;;;;;0.55;76.08;95563.31;1742713;81;25892;-81
2021/01/23 02:14:34;;;;;;;;;;;;;;;0.62;76.02;95572.13;1736234;81;27712;-81
2021/01/23 02:17:04;;;;;;;;;;;;;;;0.58;75.94;95550.48;1735850;81;26118;-82
2021/01/23 02:19:59;;;;;;;;;;;;;;;0.59;75.92;95567.23;1736468;81;25769;-81
2021/01/23 02:22:30;;;;;;;;;;;;;;;0.59;75.73;95569.89;1736547;81;26910;-81
2021/01/23 02:24:57;;;;;;;;;;;;;;;0.59;75.63;95573.88;1736599;81;25820;-81
2021/01/23 02:27:33;;;;;;;;;;;;;;;0.61;75.64;95564.67;1736450;81;27556;-83
2021/01/23 02:30:10;;;;;;;;;;;;;;;0.60;75.58;95557.75;1736381;82;26436;-82
2021/01/23 02:32:38;;;;;;;;;;;;;;;0.62;75.50;95564.17;1736434;81;25806;-82
2021/01/23 02:35:09;;;;;;;;;;;;;;;0.65;75.54;95566.44;1736537;81;27423;-81
2021/01/23 02:37:36;;;;;;;;;;;;;;;0.60;75.50;95567.05;1736537;81;25883;-81
2021/01/23 02:40:04;;;;;;;;;;;;;;;0.55;75.74;95554.84;1736320;81;27728;-82
2021/01/23 02:42:31;;;;;;;;;;;;;;;0.59;75.90;95554.78;1736378;81;26208;-84
2021/01/23 02:44:58;;;;;;;;;;;;;;;0.59;75.79;95561.92;1736510;81;25799;-81
2021/01/23 02:47:25;;;;;;;;;;;;;;;0.51;75.69;95551.44;1736397;81;26440;-82
2021/01/23 02:49:52;;;;;;;;;;;;;;;0.49;75.73;95547.64;1736551;81;25797;-81
2021/01/23 02:52:28;;;;;;;;;;;;;;;0.45;75.65;95543.76;1736501;82;29097;-81
2021/01/23 02:55:07;;;;;;;;;;;;;;;0.38;75.73;95540.72;1736483;81;26275;-81
2021/01/23 02:57:35;;;;;;;;;;;;;;;0.36;75.71;95535.09;1736645;81;25763;-81
2021/01/23 03:00:11;;;;;;;;;;;;;;;0.34;75.62;95535.83;1736205;81;25904;-81
2021/01/23 03:02:44;;;;;;;;;;;;;;;0.33;75.55;95525.39;1736862;81;26092;-81
2021/01/23 03:05:13;;;;;;;;;;;;;;;0.38;75.64;95527.45;1740680;81;27655;-85
2021/01/23 03:07:40;;;;;;;;;;;;;;;0.42;75.63;95528.21;1740626;81;26551;-83
2021/01/23 03:10:10;;;;;;;;;;;;;;;0.31;75.42;95522.11;1740594;81;25758;-86
2021/01/23 03:12:37;;;;;;;;;;;;;;;0.19;75.42;95521.00;1740635;81;26079;-82
2021/01/23 03:15:06;;;;;;;;;;;;;;;0.18;75.51;95525.48;1740697;81;25832;-84
2021/01/23 03:17:33;;;;;;;;;;;;;;;0.18;75.65;95520.19;1740614;81;27511;-82
2021/01/23 03:20:00;;;;;;;;;;;;;;;0.19;75.79;95519.67;1740515;81;25804;-81
2021/01/23 03:22:27;;;;;;;;;;;;;;;0.22;75.82;95520.12;1740601;81;25788;-81
2021/01/23 03:24:54;;;;;;;;;;;;;;;0.19;75.72;95523.15;1741461;81;25863;-81
2021/01/23 03:27:21;;;;;;;;;;;;;;;0.12;75.74;95522.80;1760952;81;25744;-88
2021/01/23 03:29:48;;;;;;;;;;;;;;;0.14;75.76;95527.37;1760498;80;28822;-82
2021/01/23 03:32:14;;;;;;;;;;;;;;;0.14;75.77;95517.59;1741800;81;25804;-81
2021/01/23 03:34:41;;;;;;;;;;;;;;;0.16;75.78;95528.84;1740666;81;25823;-81
2021/01/23 03:37:08;;;;;;;;;;;;;;;0.10;75.58;95528.30;1740589;81;25816;-81
2021/01/23 03:39:35;;;;;;;;;;;;;;;0.02;75.55;95515.66;1740586;81;25760;-83
2021/01/23 03:42:03;;;;;;;;;;;;;;;-0.01;75.64;95515.55;1740580;81;27690;-81
2021/01/23 03:44:30;;;;;;;;;;;;;;;-0.03;75.63;95513.09;1740579;81;25821;-81
2021/01/23 03:46:57;;;;;;;;;;;;;;;-0.04;75.62;95518.08;1740610;81;25725;-83
2021/01/23 03:49:23;;;;;;;;;;;;;;;-0.13;75.69;95507.80;1740618;81;25829;-81
2021/01/23 03:51:50;;;;;;;;;;;;;;;-0.14;75.89;95498.20;1740661;81;25343;-82
2021/01/23 03:54:17;;;;;;;;;;;;;;;-0.15;76.05;95506.66;1740588;81;28445;-82
2021/01/23 03:56:44;;;;;;;;;;;;;;;-0.12;76.18;95502.28;1740574;81;25813;-83
2021/01/23 03:59:11;;;;;;;;;;;;;;;-0.09;76.09;95518.33;1740539;81;25768;-82
2021/01/23 04:01:38;;;;;;;;;;;;;;;-0.13;76.09;95502.00;1740546;81;25857;-82
2021/01/23 04:04:05;;;;;;;;;;;;;;;-0.16;76.10;95498.89;1740597;81;25752;-82
2021/01/23 04:06:32;;;;;;;;;;;;;;;-0.14;76.16;95503.51;1751732;81;27498;-82
2021/01/23 04:08:59;;;;;;;;;;;;;;;-0.13;76.20;95503.83;1750505;81;26354;-83
2021/01/23 04:11:26;;;;;;;;;;;;;;;-0.13;76.17;95512.60;1749135;81;25345;-81
2021/01/23 04:13:52;;;;;;;;;;;;;;;-0.14;76.10;95502.18;1771187;81;25832;-81
2021/01/23 04:16:19;;;;;;;;;;;;;;;-0.12;76.22;95489.55;1743758;81;26297;-85
2021/01/23 04:18:47;;;;;;;;;;;;;;;-0.10;76.35;95487.00;1740614;81;28619;-87
2021/01/23 04:21:14;;;;;;;;;;;;;;;-0.12;76.39;95473.64;1740505;81;25867;-82
2021/01/23 04:23:41;;;;;;;;;;;;;;;-0.11;76.39;95484.03;1751942;81;25433;-82
2021/01/23 04:26:07;;;;;;;;;;;;;;;-0.13;76.40;95474.66;1747419;81;25763;-82
2021/01/23 04:28:34;;;;;;;;;;;;;;;-0.11;76.53;95483.21;1756358;80;25836;-81
2021/01/23 04:31:01;;;;;;;;;;;;;;;-0.10;76.37;95477.72;1740669;81;28675;-82
2021/01/23 04:33:28;;;;;;;;;;;;;;;-0.08;76.45;95474.37;1740435;81;26147;-85
2021/01/23 04:35:56;;;;;;;;;;;;;;;-0.04;76.55;95476.97;1740679;81;25775;-85
2021/01/23 04:38:23;;;;;;;;;;;;;;;-0.01;76.57;95465.98;1741127;81;26103;-81
2021/01/23 04:40:50;;;;;;;;;;;;;;;-0.02;76.56;95477.59;1750532;81;25773;-81
2021/01/23 04:43:16;;;;;;;;;;;;;;;0.00;76.66;95469.45;1755368;81;27393;-85
2021/01/23 04:45:43;;;;;;;;;;;;;;;0.06;76.69;95477.95;1745431;81;25797;-87
2021/01/23 04:48:10;;;;;;;;;;;;;;;0.05;76.60;95473.66;1769201;81;26280;-82
2021/01/23 04:50:37;;;;;;;;;;;;;;;0.04;76.61;95462.73;1748200;81;26392;-87
2021/01/23 04:53:04;;;;;;;;;;;;;;;0.08;76.66;95448.07;1747272;80;25788;-88
2021/01/23 04:55:31;;;;;;;;;;;;;;;0.13;76.72;95445.64;1740459;81;28750;-81
2021/01/23 04:57:58;;;;;;;;;;;;;;;0.18;76.79;95449.87;1740604;81;25810;-85
2021/01/23 05:00:25;;;;;;;;;;;;;;;0.18;76.77;95441.09;1746760;81;25669;-83
2021/01/23 05:03:00;;;;;;;;;;;;;;;0.18;76.71;95443.23;1755733;81;25870;-83
2021/01/23 05:05:27;;;;;;;;;;;;;;;0.10;76.68;95427.48;1744177;80;26000;-84
2021/01/23 05:07:56;;;;;;;;;;;;;;;0.06;76.68;95433.36;1775224;80;27555;-81
2021/01/23 05:10:27;;;;;;;;;;;;;;;0.05;76.76;95419.27;1762150;80;25842;-82
2021/01/23 05:12:56;;;;;;;;;;;;;;;0.06;76.95;95416.11;1761182;81;25712;-81
2021/01/23 05:15:33;;;;;;;;;;;;;;;0.05;76.98;95430.39;1749140;81;25811;-82
2021/01/23 05:18:08;;;;;;;;;;;;;;;0.09;77.01;95421.86;1749061;80;25835;-82
2021/01/23 05:20:45;;;;;;;;;;;;;;;0.12;77.00;95421.98;1749076;80;27747;-82
2021/01/23 05:23:25;;;;;;;;;;;;;;;0.07;76.91;95427.04;1748947;80;25799;-87
2021/01/23 05:25:54;;;;;;;;;;;;;;;0.06;76.99;95420.91;1749058;81;26501;-81
2021/01/23 05:28:36;;;;;;;;;;;;;;;0.08;77.03;95420.73;1748954;81;26572;-88
2021/01/23 05:31:04;;;;;;;;;;;;;;;0.06;77.05;95426.22;1749091;80;25770;-81
2021/01/23 05:33:34;;;;;;;;;;;;;;;0.08;77.16;95425.52;1749030;80;27788;-87
2021/01/23 05:36:06;;;;;;;;;;;;;;;0.08;77.12;95413.59;1748975;80;26271;-86
2021/01/23 05:38:35;;;;;;;;;;;;;;;0.06;77.10;95423.56;1749027;80;26358;-84
2021/01/23 05:41:08;;;;;;;;;;;;;;;0.07;77.21;95414.59;1749068;80;25815;-86
2021/01/23 05:43:41;;;;;;;;;;;;;;;0.07;77.21;95405.31;1749099;80;25728;-82
2021/01/23 05:46:11;;;;;;;;;;;;;;;0.06;77.21;95397.04;1749114;80;27501;-81
2021/01/23 05:51:23;;;;;;;;;;;;;;;0.10;77.32;95402.28;1882101;75;25646;-81
2021/01/23 05:53:50;;;;;;;;;;;;;;;0.08;77.30;95390.22;1844287;77;25916;-81
2021/01/23 05:56:18;;;;;;;;;;;;;;;0.07;77.35;95393.38;1833594;77;28732;-85
2021/01/23 05:58:46;;;;;;;;;;;;;;;0.08;77.37;95389.71;1825303;77;25871;-82
2021/01/23 06:01:20;;;;;;;;;;;;;;;0.14;77.44;95390.23;1833066;77;25683;-81
2021/01/23 06:03:53;;;;;;;;;;;;;;;0.10;77.28;95395.64;1835078;77;25719;-85
2021/01/23 06:06:21;;;;;;;;;;;;;;;0.05;77.28;95395.40;1856176;77;25787;-83
2021/01/23 06:08:52;;;;;;;;;;;;;;;0.03;77.26;95399.25;1827516;77;28636;-81
2021/01/23 06:11:24;;;;;;;;;;;;;;;0.02;77.49;95397.11;1844686;77;25773;-85
2021/01/23 06:13:56;;;;;;;;;;;;;;;0.03;77.64;95388.14;1846439;77;25809;-82
2021/01/23 06:16:36;;;;;;;;;;;;;;;0.08;77.78;95400.32;1856203;77;25777;-87
2021/01/23 06:19:18;;;;;;;;;;;;;;;0.14;77.97;95398.20;1843022;77;25367;-83
2021/01/23 06:21:49;;;;;;;;;;;;;;;0.14;77.91;95391.56;1838342;77;28753;-88
2021/01/23 06:24:19;;;;;;;;;;;;;;;0.15;77.99;95395.86;1820256;77;25790;-82
2021/01/23 06:26:57;;;;;;;;;;;;;;;0.22;78.07;95388.77;1843841;77;25720;-82
2021/01/23 06:29:42;;;;;;;;;;;;;;;0.29;78.05;95394.92;1860128;77;26381;-82
2021/01/23 06:32:18;;;;;;;;;;;;;;;0.30;77.96;95397.89;1818498;77;25738;-82
2021/01/23 06:34:50;;;;;;;;;;;;;;;0.33;78.04;95397.50;1833371;77;27577;-81
2021/01/23 06:37:27;;;;;;;;;;;;;;;0.35;78.08;95406.09;1831268;77;25934;-86
2021/01/23 06:39:59;;;;;;;;;;;;;;;0.38;78.20;95407.51;1814578;77;25797;-82
2021/01/23 06:42:26;;;;;;;;;;;;;;;0.45;78.30;95406.23;1814711;77;26351;-82
2021/01/23 06:44:53;;;;;;;;;;;;;;;0.50;78.33;95391.84;1826670;77;26197;-82
2021/01/23 06:47:20;;;;;;;;;;;;;;;0.54;78.33;95389.93;1816121;77;27686;-81
2021/01/23 06:49:47;;;;;;;;;;;;;;;0.58;78.34;95386.38;1831087;77;25800;-86
2021/01/23 06:52:14;;;;;;;;;;;;;;;0.62;78.33;95387.59;1865973;76;25678;-81
2021/01/23 06:54:45;;;;;;;;;;;;;;;0.64;78.25;95391.70;1863025;76;25843;-82
2021/01/23 06:57:11;;;;;;;;;;;;;;;0.69;78.32;95401.23;1840511;76;25808;-89
2021/01/23 06:59:38;;;;;;;;;;;;;;;0.77;78.34;95400.22;1852719;76;27559;-82
2021/01/23 07:02:11;;;;;;;;;;;;;;;0.73;78.14;95408.27;1856024;76;25803;-85
2021/01/23 07:04:47;;;;;;;;;;;;;;;0.73;78.23;95416.23;1866754;76;25704;-82
2021/01/23 07:07:16;;;;;;;;;;;;;;;0.79;78.31;95418.62;1843349;76;25716;-83
2021/01/23 07:09:50;;;;;;;;;;;;;;;0.82;78.26;95423.54;1834951;76;26073;-81
2021/01/23 07:12:36;;;;;;;;;;;;;;;0.82;78.34;95412.41;1835389;76;27615;-84
2021/01/23 07:15:07;;;;;;;;;;;;;;;0.80;78.41;95417.09;1835588;76;25764;-82
2021/01/23 07:17:43;;;;;;;;;;;;;;;0.89;78.75;95427.84;1852099;76;25693;-83
2021/01/23 07:20:12;;;;;;;;;;;;;;;0.94;78.80;95430.73;1840693;76;25707;-81
2021/01/23 07:22:40;;;;;;;;;;;;;;;1.02;78.84;95428.39;1851498;76;25668;-83
2021/01/23 07:25:10;;;;;;;;;;;;;;;1.09;78.82;95434.03;1850758;76;27506;-84
2021/01/23 07:27:37;;;;;;;;;;;;;;;1.09;78.72;95425.23;1853264;76;25729;-85
2021/01/23 07:30:14;;;;;;;;;;;;;;;1.05;78.72;95423.51;1835333;76;25744;-83
2021/01/23 07:32:43;;;;;;;;;;;;;;;1.11;78.82;95423.70;1844182;76;26114;-83
2021/01/23 07:35:10;;;;;;;;;;;;;;;1.16;78.89;95423.94;1834438;76;25804;-83
2021/01/23 07:37:46;;;;;;;;;;;;;;;1.22;78.95;95422.61;1834282;76;27502;-81
2021/01/23 07:40:16;;;;;;;;;;;;;;;1.24;78.78;95416.59;1835962;76;25781;-82
2021/01/23 07:42:44;;;;;;;;;;;;;;;1.28;78.87;95411.19;1850275;75;25896;-86
2021/01/23 07:45:13;;;;;;;;;;;;;;;1.30;78.95;95404.34;1868590;75;25871;-83
2021/01/23 07:47:40;;;;;;;;;;;;;;;1.37;79.00;95398.52;1856838;76;25820;-83
2021/01/23 07:50:12;;;;;;;;;;;;;;;1.45;79.05;95387.67;1842297;76;28112;-86
2021/01/23 07:52:41;;;;;;;;;;;;;;;1.55;79.09;95389.44;1813600;77;26224;-85
2021/01/23 07:55:09;;;;;;;;;;;;;;;1.66;79.01;95408.77;1842990;77;25756;-82
2021/01/23 07:57:36;;;;;;;;;;;;;;;1.73;78.91;95400.77;1851076;77;25730;-86
2021/01/23 08:00:05;;;;;;;;;;;;;;;1.84;78.89;95401.48;1832770;77;25876;-86
2021/01/23 08:02:54;;;;;;;;;;;;;;;1.86;78.70;95399.44;1842706;77;27596;-81
2021/01/23 08:05:21;;;;;;;;;;;;;;;1.89;78.71;95407.52;1813745;77;25703;-82
2021/01/23 08:07:48;;;;;;;;;;;;;;;1.99;78.76;95409.25;1813684;77;25821;-87
2021/01/23 08:10:20;;;;;;;;;;;;;;;2.10;78.75;95408.62;1854137;77;26345;-85
2021/01/23 08:13:02;;;;;;;;;;;;;;;2.12;78.54;95402.58;1855541;75;25749;-84
2021/01/23 08:15:34;;;;;;;;;;;;;;;2.09;78.45;95395.00;1836804;77;29058;-88
2021/01/23 08:18:01;;;;;;;;;;;;;;;2.11;78.63;95380.98;1817399;77;26322;-86
2021/01/23 08:20:35;;;;;;;;;;;;;;;2.21;78.73;95376.04;1842176;75;25744;-86
2021/01/23 08:23:14;;;;;;;;;;;;;;;2.31;78.77;95388.91;1837182;77;26161;-84
2021/01/23 08:25:47;;;;;;;;;;;;;;;2.39;78.85;95393.52;1830522;77;25348;-83
2021/01/23 08:28:16;;;;;;;;;;;;;;;2.53;78.87;95393.78;1836301;77;27505;-81
2021/01/23 08:30:44;;;;;;;;;;;;;;;2.59;78.66;95392.63;1859422;77;25641;-85
2021/01/23 08:33:12;;;;;;;;;;;;;;;2.62;78.53;95390.36;1830347;77;25758;-86
2021/01/23 08:35:41;;;;;;;;;;;;;;;2.66;78.53;95380.08;1820428;77;25769;-85
2021/01/23 08:38:09;;;;;;;;;;;;;;;2.69;78.47;95384.99;1843405;77;25686;-84
2021/01/23 08:40:38;;;;;;;;;;;;;;;2.76;78.49;95377.81;1838745;77;28434;-87
2021/01/23 08:43:05;;;;;;;;;;;;;;;2.83;78.47;95367.92;1849595;77;25755;-82
2021/01/23 08:45:33;;;;;;;;;;;;;;;2.93;78.45;95370.94;1859552;77;25682;-82
2021/01/23 08:48:00;;;;;;;;;;;;;;;2.96;78.27;95367.86;1839812;77;26014;-82
2021/01/23 08:50:28;;;;;;;;;;;;;;;3.00;78.13;95369.08;1831897;77;25809;-81
2021/01/23 08:52:55;;;;;;;;;;;;;;;3.00;78.02;95374.41;1849480;76;27541;-85
2021/01/23 08:55:22;;;;;;;;;;;;;;;2.99;78.05;95360.77;1842401;76;25834;-82
2021/01/23 08:57:49;;;;;;;;;;;;;;;3.08;78.21;95365.33;1838732;76;25761;-82
2021/01/23 09:00:16;;;;;;;;;;;;;;;3.19;78.16;95378.80;1840965;76;25732;-84
2021/01/23 09:02:43;;;;;;;;;;;;;;;3.26;78.05;95372.89;1852146;76;25815;-83
2021/01/23 09:05:12;;;;;;;;;;;;;;;3.31;77.94;95365.59;1863707;76;27487;-81
2021/01/23 09:07:39;;;;;;;;;;;;;;;3.34;77.82;95360.34;1841417;76;26100;-85
2021/01/23 09:10:10;;;;;;;;;;;;;;;3.39;77.81;95352.49;1862429;76;25902;-82
2021/01/23 09:12:39;;;;;;;;;;;;;;;3.48;77.89;95352.55;1851155;76;25741;-85
2021/01/23 09:15:09;;;;;;;;;;;;;;;3.57;77.86;95353.39;1864010;75;25653;-84
2021/01/23 09:17:37;;;;;;;;;;;;;;;3.65;77.83;95352.30;1851007;76;28820;-86
2021/01/23 09:20:06;;;;;;;;;;;;;;;3.74;77.83;95350.19;1849617;76;26388;-83
2021/01/23 09:22:33;;;;;;;;;;;;;;;3.87;77.81;95350.86;1834337;76;25838;-85
2021/01/23 09:25:00;;;;;;;;;;;;;;;4.01;77.75;95345.40;1858661;76;25816;-85
2021/01/23 09:27:28;;;;;;;;;;;;;;;4.11;77.53;95346.52;1834604;76;25780;-84
2021/01/23 09:29:55;;;;;;;;;;;;;;;4.18;77.39;95353.14;1846764;76;27713;-84
2021/01/23 09:32:22;;;;;;;;;;;;;;;4.29;77.36;95358.56;1846395;76;25765;-85
2021/01/23 09:34:49;;;;;;;;;;;;;;;4.42;77.31;95349.59;1834585;76;26350;-82
2021/01/23 09:37:17;;;;;;;;;;;;;;;4.55;77.22;95342.77;1842205;76;26313;-84
2021/01/23 09:39:44;;;;;;;;;;;;;;;4.69;77.04;95344.76;1859829;76;25751;-85
2021/01/23 09:42:11;;;;;;;;;;;;;;;4.75;76.84;95325.66;1836832;76;27487;-83
2021/01/23 09:44:38;;;;;;;;;;;;;;;4.78;76.58;95331.89;1850020;76;26118;-81
2021/01/23 09:47:05;;;;;;;;;;;;;;;4.80;76.61;95333.83;1868010;76;25867;-81
2021/01/23 09:49:32;;;;;;;;;;;;;;;4.90;76.62;95330.09;1858319;76;25751;-82
2021/01/23 09:51:59;;;;;;;;;;;;;;;5.00;76.60;95328.50;1819153;76;25778;-80
2021/01/23 09:54:26;;;;;;;;;;;;;;;5.11;76.47;95332.25;1795451;78;27531;-80
2021/01/23 09:56:53;;;;;;;;;;;;;;;5.18;76.37;95337.00;1795443;78;25699;-80
2021/01/23 09:59:20;;;;;;;;;;;;;;;5.26;76.36;95332.66;1795395;78;25794;-84
2021/01/23 10:01:47;;;;;;;;;;;;;;;5.29;76.08;95326.86;1795316;78;25939;-81
2021/01/23 10:04:14;;;;;;;;;;;;;;;5.32;76.04;95315.67;1795401;78;25356;-81
2021/01/23 10:06:41;;;;;;;;;;;;;;;5.36;75.93;95304.00;1795396;78;27291;-81
2021/01/23 10:09:08;;;;;;;;;;;;;;;5.44;75.99;95303.14;1795069;78;26186;-85
2021/01/23 10:11:36;;;;;;;;;;;;;;;5.61;76.08;95309.98;1795018;78;25745;-84
2021/01/23 10:14:05;;;;;;;;;;;;;;;5.78;76.07;95316.81;1794869;78;25703;-79
2021/01/23 10:16:32;;;;;;;;;;;;;;;5.93;75.94;95313.16;1795363;78;25706;-79
2021/01/23 10:19:03;;;;;;;;;;;;;;;6.05;75.81;95316.65;1795440;78;26883;-80
2021/01/23 10:21:28;;;;;;;;;;;;;;;6.24;75.61;95323.23;1794878;78;25719;-81
2021/01/23 10:23:55;;;;;;;;;;;;;;;6.38;75.19;95307.20;1795419;78;25320;-83
2021/01/23 10:26:22;;;;;;;;;;;;;;;6.45;74.93;95299.83;1801933;78;25711;-85
2021/01/23 10:28:49;;;;;;;;;;;;;;;6.60;74.91;95302.02;1827136;78;25726;-84
2021/01/23 10:31:16;;;;;;;;;;;;;;;6.79;74.99;95292.20;1804688;77;27482;-84
2021/01/23 10:33:43;;;;;;;;;;;;;;;7.05;74.89;95300.73;1824441;78;25768;-81
2021/01/23 10:36:10;;;;;;;;;;;;;;;7.33;74.72;95288.64;1813066;78;25754;-82
2021/01/23 10:38:38;;;;;;;;;;;;;;;7.63;74.49;95282.95;1799612;77;26436;-79
2021/01/23 10:41:05;;;;;;;;;;;;;;;7.95;74.09;95276.48;1811515;78;25900;-79
2021/01/23 10:43:32;;;;;;;;;;;;;;;8.20;73.62;95267.43;1814589;78;27692;-81
2021/01/23 10:45:59;;;;;;;;;;;;;;;8.59;73.32;95271.43;1818187;78;25804;-83
2021/01/23 10:48:26;;;;;;;;;;;;;;;8.93;72.78;95274.80;1827696;78;25736;-83
2021/01/23 10:50:54;;;;;;;;;;;;;;;9.15;72.23;95269.38;1810997;77;26969;-81
2021/01/23 10:53:21;;;;;;;;;;;;;;;9.26;71.78;95263.84;1836597;77;25808;-80
2021/01/23 10:55:48;;;;;;;;;;;;;;;9.29;71.36;95261.98;1836364;77;28464;-83
2021/01/23 10:58:15;;;;;;;;;;;;;;;9.34;71.03;95264.71;1836483;78;25721;-84
2021/01/23 11:00:42;;;;;;;;;;;;;;;9.49;70.81;95250.58;1826526;76;25641;-84
2021/01/23 11:03:09;;;;;;;;;;;;;;;9.54;70.46;95257.33;1803721;78;26446;-81
2021/01/23 11:05:38;;;;;;;;;;;;;;;9.54;70.12;95266.76;1813998;78;25650;-86
2021/01/23 11:08:05;;;;;;;;;;;;;;;9.57;69.90;95263.56;1836456;77;27476;-83
2021/01/23 11:10:32;;;;;;;;;;;;;;;9.59;69.53;95261.43;1836254;78;26234;-86
2021/01/23 11:12:59;;;;;;;;;;;;;;;9.52;69.10;95272.97;1829871;78;26445;-81
2021/01/23 11:15:27;;;;;;;;;;;;;;;9.47;69.10;95266.70;1819742;78;25800;-84
2021/01/23 11:17:54;;;;;;;;;;;;;;;9.46;68.97;95257.81;1813307;76;25841;-82
2021/01/23 11:20:21;;;;;;;;;;;;;;;9.40;68.85;95262.89;1836155;77;27478;-86
2021/01/23 11:22:49;;;;;;;;;;;;;;;9.34;68.73;95265.24;1817755;77;25724;-86
2021/01/23 11:25:16;;;;;;;;;;;;;;;9.28;68.73;95266.28;1803611;78;25743;-84
2021/01/23 11:27:44;;;;;;;;;;;;;;;9.22;68.72;95256.52;1803857;78;25596;-80
2021/01/23 11:30:12;;;;;;;;;;;;;;;9.20;68.60;95246.00;1803390;78;25877;-86
2021/01/23 11:32:40;;;;;;;;;;;;;;;9.13;68.35;95255.36;1813095;78;28214;-80
2021/01/23 11:35:07;;;;;;;;;;;;;;;9.05;68.44;95260.67;1816740;78;26359;-86
2021/01/23 11:37:35;;;;;;;;;;;;;;;9.03;68.38;95256.89;1833754;78;26456;-85
2021/01/23 11:40:04;;;;;;;;;;;;;;;9.00;68.11;95265.98;1836717;77;25827;-84
2021/01/23 11:42:32;;;;;;;;;;;;;;;8.92;68.12;95276.69;1831163;77;25763;-80
2021/01/23 11:44:59;;;;;;;;;;;;;;;8.87;68.17;95275.80;1827090;77;27480;-82
2021/01/23 11:47:26;;;;;;;;;;;;;;;8.86;68.11;95283.59;1803672;78;25785;-80
2021/01/23 11:49:53;;;;;;;;;;;;;;;8.81;68.01;95277.64;1803676;78;25726;-81
2021/01/23 11:52:20;;;;;;;;;;;;;;;8.75;67.96;95273.25;1822603;77;25746;-81
2021/01/23 11:54:47;;;;;;;;;;;;;;;8.68;67.92;95273.98;1822017;77;26302;-81
2021/01/23 11:57:15;;;;;;;;;;;;;;;8.59;68.03;95276.80;1825770;77;27547;-84
2021/01/23 11:59:42;;;;;;;;;;;;;;;8.53;68.17;95274.61;1858991;77;26722;-82
2021/01/23 12:02:09;;;;;;;;;;;;;;;8.46;68.19;95273.14;1858787;77;25657;-81
2021/01/23 12:04:36;;;;;;;;;;;;;;;8.34;68.00;95257.13;1858982;77;25742;-81
2021/01/23 12:07:03;;;;;;;;;;;;;;;8.19;68.06;95253.70;1858911;77;25687;-81
2021/01/23 12:09:30;;;;;;;;;;;;;;;8.10;68.06;95254.36;1851711;77;27813;-84
2021/01/23 12:11:57;;;;;;;;;;;;;;;7.95;68.11;95247.73;1858909;77;25926;-81
2021/01/23 12:14:24;;;;;;;;;;;;;;;7.90;68.10;95250.87;1857508;77;25879;-80
2021/01/23 12:16:51;;;;;;;;;;;;;;;7.82;68.11;95244.05;1855799;77;26586;-81
2021/01/23 12:19:18;;;;;;;;;;;;;;;7.76;68.26;95250.39;1820936;77;25732;-82
2021/01/23 12:21:45;;;;;;;;;;;;;;;7.74;68.33;95245.80;1833010;77;28667;-81
2021/01/23 12:24:14;;;;;;;;;;;;;;;7.63;67.97;95245.88;1825626;77;25994;-80
2021/01/23 12:26:41;;;;;;;;;;;;;;;7.52;68.16;95244.91;1844845;77;25627;-81
2021/01/23 12:29:08;;;;;;;;;;;;;;;7.41;68.27;95253.34;1853393;77;25739;-80
2021/01/23 12:31:35;;;;;;;;;;;;;;;7.33;68.36;95258.30;1822970;77;26203;-80
2021/01/23 12:34:02;;;;;;;;;;;;;;;7.29;68.58;95252.59;1831793;77;27709;-82
2021/01/23 12:36:30;;;;;;;;;;;;;;;7.27;68.68;95250.68;1843104;77;26028;-81
2021/01/23 12:38:57;;;;;;;;;;;;;;;7.19;68.65;95254.59;1849500;77;25705;-80
2021/01/23 12:41:24;;;;;;;;;;;;;;;7.16;68.88;95251.04;1853804;77;25874;-80
2021/01/23 12:43:51;;;;;;;;;;;;;;;7.18;68.98;95245.44;1857628;75;25908;-81
2021/01/23 12:46:18;;;;;;;;;;;;;;;7.07;68.69;95243.64;1836263;77;27551;-83
2021/01/23 12:48:47;;;;;;;;;;;;;;;6.92;68.83;95243.36;1845510;77;26133;-82
2021/01/23 12:51:16;;;;;;;;;;;;;;;6.85;68.94;95252.37;1858347;77;25754;-79
2021/01/23 12:53:43;;;;;;;;;;;;;;;6.83;68.96;95243.75;1857145;75;25720;-80
2021/01/23 12:56:10;;;;;;;;;;;;;;;6.76;68.86;95248.43;1849405;77;25672;-82
2021/01/23 12:58:37;;;;;;;;;;;;;;;6.67;68.95;95239.16;1845333;77;27753;-81
2021/01/23 13:01:04;;;;;;;;;;;;;;;6.64;69.29;95228.91;1832604;77;25727;-80
2021/01/23 13:03:31;;;;;;;;;;;;;;;6.63;69.43;95235.87;1813967;77;25709;-80
2021/01/23 13:05:58;;;;;;;;;;;;;;;6.61;69.58;95237.45;1830209;77;26418;-80